Time;durP1;ratioP1;P1;durP2;ratioP2;P2;SDS_P1;SDS_P2;PMS_P1;PMS_P2;Temp;Humidity;BMP_temperature;BMP_pressure;BME280_temperature;BME280_humidity;BME280_pressure;Samples;Min_cycle;Max_cycle;Signal;HPM_P1;HPM_P2
2024/02/09 00:00:10;;;;;;;4.80;2.80;;;;;;;0.13;100.00;99534.47;4906613;29;20039;-74
2024/02/09 00:02:45;;;;;;;5.10;3.25;;;;;;;0.18;100.00;99529.34;4924246;29;20126;-73
2024/02/09 00:05:13;;;;;;;8.80;3.20;;;;;;;0.15;100.00;99532.44;4921864;29;20481;-73
2024/02/09 00:07:40;;;;;;;5.55;3.38;;;;;;;0.19;100.00;99527.50;4926693;29;20044;-74
2024/02/09 00:10:06;;;;;;;5.47;3.05;;;;;;;0.17;100.00;99511.94;4919563;29;20068;-75
2024/02/09 00:12:34;;;;;;;5.88;3.38;;;;;;;0.16;100.00;99494.53;4925007;29;20040;-75
2024/02/09 00:15:06;;;;;;;6.38;2.97;;;;;;;0.12;100.00;99482.88;4923355;29;20167;-74
2024/02/09 00:17:36;;;;;;;9.60;3.38;;;;;;;0.15;100.00;99498.22;4922192;29;20040;-73
2024/02/09 00:20:10;;;;;;;5.03;3.70;;;;;;;0.16;100.00;99481.38;4923568;29;20110;-73
2024/02/09 00:22:37;;;;;;;5.82;2.60;;;;;;;0.18;100.00;99466.16;4907020;29;20043;-72
2024/02/09 00:25:10;;;;;;;4.88;3.35;;;;;;;0.17;100.00;99469.81;4922823;29;20119;-74
2024/02/09 00:27:37;;;;;;;5.68;2.90;;;;;;;0.22;100.00;99461.22;4923338;29;20118;-74
2024/02/09 00:30:05;;;;;;;;;;;;;;;0.20;100.00;99466.75;4939730;29;20496;-74
2024/02/09 00:32:33;;;;;;;4.45;3.03;;;;;;;0.22;100.00;99458.59;4921825;29;20022;-73
2024/02/09 00:34:59;;;;;;;5.38;2.97;;;;;;;0.20;100.00;99443.03;4940853;28;20042;-73
2024/02/09 00:37:26;;;;;;;7.82;3.63;;;;;;;0.21;100.00;99443.84;4937743;28;20043;-75
2024/02/09 00:39:52;;;;;;;7.55;3.10;;;;;;;0.17;100.00;99448.75;4924516;29;20035;-75
2024/02/09 00:42:18;;;;;;;10.93;3.88;;;;;;;0.15;100.00;99435.03;4907670;29;20035;-74
2024/02/09 00:44:44;;;;;;;7.38;4.00;;;;;;;0.15;100.00;99432.41;4917949;29;20043;-76
2024/02/09 00:47:10;;;;;;;6.35;3.55;;;;;;;0.15;100.00;99440.28;4923246;29;20060;-74
2024/02/09 00:49:37;;;;;;;6.53;4.30;;;;;;;0.15;100.00;99435.03;4912319;29;20047;-77
2024/02/09 00:52:03;;;;;;;5.80;4.18;;;;;;;0.17;100.00;99432.16;4925080;29;20763;-75
2024/02/09 00:54:29;;;;;;;8.95;4.90;;;;;;;0.19;100.00;99437.97;4923378;29;20072;-75
2024/02/09 00:56:56;;;;;;;6.50;4.15;;;;;;;0.22;100.00;99429.63;4923026;29;20487;-76
2024/02/09 00:59:23;;;;;;;9.82;4.70;;;;;;;0.17;100.00;99426.91;4908400;29;20051;-76
2024/02/09 01:01:53;;;;;;;6.78;3.78;;;;;;;0.18;100.00;99428.50;4918961;29;20043;-74
2024/02/09 01:04:20;;;;;;;7.40;4.45;;;;;;;0.17;100.00;99422.44;4920695;29;20082;-74
2024/02/09 01:06:48;;;;;;;;;;;;;;;0.20;100.00;99416.72;4925743;29;20103;-77
2024/02/09 01:09:15;;;;;;;8.90;4.80;;;;;;;0.18;100.00;99410.84;4927631;29;19918;-74
2024/02/09 01:11:41;;;;;;;8.13;4.90;;;;;;;0.18;100.00;99402.16;4921341;29;20040;-74
2024/02/09 02:44:46;;;;;;;4.22;2.80;;;;;;;0.30;100.00;99273.09;4941802;29;20119;-82
2024/02/09 02:47:17;;;;;;;6.38;2.72;;;;;;;0.24;100.00;99265.09;4925575;29;20036;-81
2024/02/09 03:06:32;;;;;;;3.95;2.72;;;;;;;0.23;100.00;99236.38;4952689;28;20047;-80
2024/02/09 03:08:58;;;;;;;3.38;2.13;;;;;;;0.23;100.00;99224.03;4933917;29;20043;-81
2024/02/09 03:11:24;;;;;;;4.72;2.35;;;;;;;0.23;100.00;99224.03;4936746;29;20087;-81
2024/02/09 03:13:50;;;;;;;3.78;2.17;;;;;;;0.20;100.00;99213.97;4919209;29;20032;-81
2024/02/09 03:16:19;;;;;;;4.20;2.50;;;;;;;0.19;100.00;99212.34;4943690;29;20040;-81
2024/02/09 03:18:45;;;;;;;4.28;2.40;;;;;;;0.21;100.00;99212.13;4950852;29;20119;-81
2024/02/09 03:21:19;;;;;;;3.50;2.40;;;;;;;0.25;100.00;99219.31;4957532;28;20110;-82
2024/02/09 03:23:48;;;;;;;3.47;2.20;;;;;;;0.22;100.00;99208.47;4914656;29;20051;-82
2024/02/09 03:26:14;;;;;;;3.75;2.42;;;;;;;0.21;100.00;99199.78;4955940;29;20090;-81
2024/02/09 03:28:40;;;;;;;4.68;2.65;;;;;;;0.24;100.00;99207.19;4908917;29;20043;-80
2024/02/09 03:31:08;;;;;;;5.68;2.28;;;;;;;0.16;100.00;99197.06;4908935;29;20075;-80
2024/02/09 03:33:35;;;;;;;3.97;2.20;;;;;;;0.17;100.00;99180.22;4936992;29;20119;-82
2024/02/09 03:36:01;;;;;;;3.70;2.10;;;;;;;0.14;100.00;99198.34;4930670;29;20082;-83
2024/02/09 03:38:30;;;;;;;4.55;2.40;;;;;;;0.11;100.00;99183.81;4938145;29;20073;-83
2024/02/09 03:40:57;;;;;;;3.28;2.05;;;;;;;0.09;100.00;99164.81;4921747;29;20044;-82
2024/02/09 03:43:23;;;;;;;3.15;2.08;;;;;;;0.05;100.00;99171.59;4939727;29;20048;-84
2024/02/09 03:45:49;;;;;;;4.00;2.30;;;;;;;0.03;100.00;99157.88;4919476;29;21265;-82
2024/02/09 03:48:14;;;;;;;3.00;1.65;;;;;;;0.02;100.00;99155.50;4932294;29;20050;-84
2024/02/09 03:50:42;;;;;;;3.40;2.33;;;;;;;0.01;100.00;99144.16;4931748;29;20047;-81
2024/02/09 03:53:12;;;;;;;4.18;2.10;;;;;;;0.01;100.00;99157.31;4921708;29;20035;-81
2024/02/09 03:55:41;;;;;;;3.72;2.33;;;;;;;-0.03;100.00;99154.38;4914042;29;20067;-81
2024/02/09 03:58:08;;;;;;;3.45;2.20;;;;;;;-0.04;100.00;99146.72;4930996;29;20043;-81
2024/02/09 04:00:34;;;;;;;5.28;2.30;;;;;;;-0.11;100.00;99132.91;4918937;29;20130;-81
2024/02/09 04:02:59;;;;;;;3.75;2.45;;;;;;;-0.07;100.00;99131.38;4933912;29;20075;-82
2024/02/09 04:05:26;;;;;;;4.05;2.05;;;;;;;-0.08;100.00;99141.13;4921226;29;20044;-82
2024/02/09 04:07:52;;;;;;;3.70;2.47;;;;;;;-0.07;100.00;99144.53;4928089;29;20071;-83
2024/02/09 04:10:21;;;;;;;4.03;2.05;;;;;;;-0.11;100.00;99130.28;4923818;29;20031;-83
2024/02/09 04:12:47;;;;;;;5.05;2.33;;;;;;;-0.09;100.00;99133.47;4913380;29;20059;-81
2024/02/09 04:15:14;;;;;;;4.72;2.40;;;;;;;-0.14;100.00;99125.47;4931049;29;20159;-81
2024/02/09 04:17:43;;;;;;;3.67;2.50;;;;;;;-0.11;100.00;99133.72;4927252;29;20040;-80
2024/02/09 04:20:11;;;;;;;3.72;2.15;;;;;;;-0.09;100.00;99128.19;4910098;29;20039;-81
2024/02/09 04:22:36;;;;;;;4.38;2.55;;;;;;;-0.14;100.00;99118.38;4928838;29;20087;-80
2024/02/09 04:25:03;;;;;;;4.03;2.40;;;;;;;-0.10;100.00;99106.34;4929192;29;20040;-82
2024/02/09 04:27:33;;;;;;;3.80;1.92;;;;;;;-0.13;100.00;99111.31;4919607;29;20043;-81
2024/02/09 04:29:58;;;;;;;3.83;2.50;;;;;;;-0.14;100.00;99099.97;4938428;29;20042;-82
2024/02/09 04:32:24;;;;;;;3.70;2.28;;;;;;;-0.13;100.00;99108.69;4937615;29;20036;-81
2024/02/09 04:34:51;;;;;;;2.97;2.05;;;;;;;-0.12;100.00;99107.66;4936540;29;20049;-81
2024/02/09 04:37:21;;;;;;;3.50;2.47;;;;;;;-0.16;100.00;99098.63;4929014;29;20042;-82
2024/02/09 04:39:47;;;;;;;4.05;2.42;;;;;;;-0.11;100.00;99093.44;4927524;29;20042;-81
2024/02/09 04:42:14;;;;;;;3.03;2.30;;;;;;;-0.09;100.00;99096.63;4941138;29;20078;-82
2024/02/09 04:44:40;;;;;;;3.30;2.20;;;;;;;-0.11;100.00;99096.06;4940258;28;20540;-82
2024/02/09 04:47:06;;;;;;;3.22;2.03;;;;;;;-0.08;100.00;99093.75;4912920;29;20091;-82
2024/02/09 04:49:32;;;;;;;5.07;2.28;;;;;;;-0.11;100.00;99077.66;4917149;29;20643;-82
2024/02/09 04:51:57;;;;;;;3.90;2.33;;;;;;;-0.09;100.00;99081.63;4926994;29;20505;-81
2024/02/09 04:54:24;;;;;;;3.30;2.30;;;;;;;-0.09;100.00;99072.94;4930035;29;20054;-81
2024/02/09 04:56:50;;;;;;;4.32;2.58;;;;;;;-0.11;100.00;99073.19;4927946;29;20516;-81
2024/02/09 04:59:16;;;;;;;3.50;2.15;;;;;;;-0.10;100.00;99058.19;4919026;29;20043;-82
2024/02/09 05:01:42;;;;;;;3.58;2.38;;;;;;;-0.09;100.00;99057.16;4936149;29;20051;-82
2024/02/09 05:04:12;;;;;;;3.10;2.22;;;;;;;-0.12;100.00;99047.91;4922111;29;20123;-81
2024/02/09 05:06:39;;;;;;;6.55;2.33;;;;;;;-0.06;100.00;99056.69;4931758;29;20054;-81
2024/02/09 05:09:07;;;;;;;3.47;2.20;;;;;;;-0.07;100.00;99047.19;4949815;28;20040;-81
2024/02/09 05:11:36;;;;;;;2.85;1.85;;;;;;;-0.10;100.00;99037.16;4915866;29;20044;-82
2024/02/09 05:14:06;;;;;;;5.78;2.10;;;;;;;-0.08;100.00;99030.59;4922175;29;20035;-81
2024/02/09 05:16:34;;;;;;;3.35;1.77;;;;;;;-0.03;100.00;99035.13;4931789;29;20036;-81
2024/02/09 05:19:03;;;;;;;3.05;1.80;;;;;;;-0.04;100.00;99038.81;4926318;29;20039;-81
2024/02/09 05:21:29;;;;;;;3.72;2.15;;;;;;;-0.01;100.00;99035.69;4919051;29;20505;-82
2024/02/09 05:23:55;;;;;;;2.80;1.67;;;;;;;-0.06;100.00;99022.47;4939396;28;20039;-81
2024/02/09 05:26:21;;;;;;;3.45;2.08;;;;;;;-0.07;100.00;99018.22;4925978;29;20043;-80
2024/02/09 05:28:51;;;;;;;2.60;1.83;;;;;;;-0.02;100.00;99013.03;4913622;29;20047;-80
2024/02/09 05:31:19;;;;;;;3.33;1.95;;;;;;;-0.01;100.00;99006.75;4932119;29;20180;-82
2024/02/09 05:33:46;;;;;;;3.42;1.92;;;;;;;-0.01;100.00;99020.69;4928873;29;20040;-80
2024/02/09 05:36:19;;;;;;;2.65;1.80;;;;;;;-0.05;100.00;99013.53;4938293;29;20146;-81
2024/02/09 05:38:49;;;;;;;4.22;1.83;;;;;;;-0.02;100.00;99010.41;4948286;28;20043;-81
2024/02/09 05:41:16;;;;;;;3.13;2.00;;;;;;;-0.01;100.00;99017.25;4904690;29;20039;-81
2024/02/09 05:43:49;;;;;;;3.60;1.98;;;;;;;-0.03;100.00;99014.09;4932808;29;20044;-82
2024/02/09 05:46:16;;;;;;;3.88;1.90;;;;;;;0.01;100.00;99012.56;4932008;29;20075;-80
2024/02/09 05:48:44;;;;;;;3.85;2.00;;;;;;;0.04;100.00;99011.28;4926019;29;20118;-81
2024/02/09 05:51:14;;;;;;;3.00;1.98;;;;;;;0.01;100.00;99015.22;4924810;29;20076;-80
2024/02/09 05:53:41;;;;;;;2.65;1.67;;;;;;;0.08;100.00;99023.72;4934013;29;20036;-81
2024/02/09 05:56:21;;;;;;;3.20;1.98;;;;;;;0.02;100.00;99008.91;4923053;29;20091;-82
2024/02/09 05:58:48;;;;;;;3.40;2.08;;;;;;;0.04;100.00;99006.03;4936022;29;20040;-81
2024/02/09 06:01:14;;;;;;;2.97;1.88;;;;;;;0.06;100.00;99014.47;4937322;29;20044;-81
2024/02/09 06:03:41;;;;;;;2.67;1.92;;;;;;;0.03;100.00;99009.69;4919104;29;20508;-81
2024/02/09 06:06:10;;;;;;;3.15;2.10;;;;;;;0.06;100.00;99015.25;4903401;29;20075;-81
2024/02/09 06:08:37;;;;;;;3.45;2.20;;;;;;;0.02;100.00;99008.91;4909908;29;20044;-82
2024/02/09 06:11:03;;;;;;;;;;;;;;;0.05;100.00;99008.41;4929340;29;20059;-82
2024/02/09 06:13:30;;;;;;;4.45;2.15;;;;;;;0.03;100.00;99002.59;4932433;29;20316;-81
2024/02/09 06:16:00;;;;;;;4.45;2.33;;;;;;;0.02;100.00;98993.09;4940554;29;20051;-83
2024/02/09 06:18:27;;;;;;;3.20;1.70;;;;;;;0.05;100.00;98992.59;4932843;29;20065;-83
2024/02/09 06:20:56;;;;;;;3.28;2.00;;;;;;;0.02;100.00;98990.47;4943588;29;20036;-82
2024/02/09 06:23:26;;;;;;;3.80;2.00;;;;;;;0.01;100.00;98981.00;4954906;28;20056;-81
2024/02/09 06:25:52;;;;;;;3.97;1.77;;;;;;;0.03;100.00;98986.00;4961238;28;20083;-80
2024/02/09 06:28:21;;;;;;;3.33;1.73;;;;;;;0.05;100.00;98984.72;4934867;29;20548;-81
2024/02/09 06:30:48;;;;;;;3.17;2.22;;;;;;;0.08;100.00;98989.50;4941064;29;20043;-81
2024/02/09 06:33:21;;;;;;;3.33;1.95;;;;;;;0.00;100.00;98974.13;4935149;29;20044;-84
2024/02/09 06:35:50;;;;;;;4.13;1.70;;;;;;;0.05;100.00;98982.09;4924554;29;20103;-81
2024/02/09 06:38:18;;;;;;;3.42;2.03;;;;;;;0.04;100.00;98972.59;4933132;29;20032;-80
2024/02/09 06:40:46;;;;;;;2.60;1.70;;;;;;;0.04;100.00;98971.81;4924716;29;20048;-81
2024/02/09 06:43:15;;;;;;;2.70;1.92;;;;;;;0.07;100.00;98982.66;4911363;29;20394;-81
2024/02/09 06:45:41;;;;;;;3.53;1.75;;;;;;;0.05;100.00;98978.66;4946450;28;20512;-80
2024/02/09 06:48:08;;;;;;;2.95;2.00;;;;;;;0.10;100.00;98990.06;4932641;29;20047;-81
2024/02/09 06:50:37;;;;;;;2.72;1.75;;;;;;;0.07;100.00;98980.03;4927826;29;20042;-82
2024/02/09 06:53:07;;;;;;;2.75;1.90;;;;;;;0.09;100.00;98980.56;4946262;29;20040;-81
2024/02/09 06:55:34;;;;;;;2.70;1.52;;;;;;;0.06;100.00;98980.25;4942755;29;20148;-82
2024/02/09 06:58:03;;;;;;;3.55;1.80;;;;;;;0.06;100.00;98978.41;4924999;29;20040;-82
2024/02/09 07:00:35;;;;;;;3.85;2.03;;;;;;;0.11;100.00;98980.31;4910381;29;20042;-83
2024/02/09 07:03:01;;;;;;;3.20;1.60;;;;;;;0.13;100.00;98986.91;4948711;29;20493;-82
2024/02/09 07:05:29;;;;;;;2.45;1.60;;;;;;;0.12;100.00;98966.91;4938255;29;20046;-82
2024/02/09 07:07:55;;;;;;;4.22;1.98;;;;;;;0.12;100.00;98974.81;4935140;29;20126;-81
2024/02/09 07:10:24;;;;;;;3.03;1.77;;;;;;;0.13;100.00;98980.84;4944229;29;20099;-81
2024/02/09 07:12:53;;;;;;;3.13;1.90;;;;;;;0.15;100.00;98981.44;4915101;29;20639;-84
2024/02/09 07:15:20;;;;;;;3.42;2.10;;;;;;;0.14;100.00;98979.84;4944978;29;20054;-82
2024/02/09 07:17:47;;;;;;;2.20;1.60;;;;;;;0.10;100.00;98976.88;4923235;29;20052;-80
2024/02/09 07:20:16;;;;;;;3.03;2.03;;;;;;;0.11;100.00;98978.47;4926276;29;20032;-82
2024/02/09 07:22:42;;;;;;;3.42;2.10;;;;;;;0.14;100.00;98969.31;4936213;23;20513;-77
2024/02/09 07:25:09;;;;;;;3.78;2.00;;;;;;;0.16;100.00;98978.56;4930097;29;20740;-74
2024/02/09 07:27:34;;;;;;;3.10;1.70;;;;;;;0.16;100.00;98972.50;4911349;29;20045;-73
2024/02/09 07:30:01;;;;;;;3.05;2.20;;;;;;;0.20;100.00;98968.31;4917263;29;20044;-74
2024/02/09 07:32:26;;;;;;;2.70;1.90;;;;;;;0.18;100.00;98965.13;4893730;29;20076;-78
2024/02/09 07:34:52;;;;;;;3.53;2.38;;;;;;;0.20;100.00;98963.03;4912098;29;20078;-77
2024/02/09 07:37:20;;;;;;;3.33;1.90;;;;;;;0.23;100.00;98966.00;4906870;29;20035;-76
2024/02/09 07:39:46;;;;;;;4.10;2.17;;;;;;;0.23;100.00;98965.19;4894906;29;20055;-77
2024/02/09 07:42:11;;;;;;;3.45;2.30;;;;;;;0.25;100.00;98963.13;4904829;29;20039;-77
2024/02/09 07:44:38;;;;;;;3.58;2.08;;;;;;;0.25;100.00;98955.22;4890742;29;20079;-77
2024/02/09 07:47:04;;;;;;;;;;;;;;;0.24;100.00;98953.63;4903355;29;20047;-77
2024/02/09 07:49:32;;;;;;;3.10;1.88;;;;;;;0.28;100.00;98953.94;4903084;29;19927;-75
2024/02/09 07:52:02;;;;;;;3.70;2.10;;;;;;;0.25;100.00;98950.75;4902683;29;20131;-76
2024/02/09 07:54:31;;;;;;;4.18;2.20;;;;;;;0.23;100.00;98947.56;4899060;29;20774;-77
2024/02/09 07:56:59;;;;;;;4.03;2.22;;;;;;;0.28;100.00;98948.69;4886450;29;20046;-75
2024/02/09 07:59:25;;;;;;;3.28;2.30;;;;;;;0.28;100.00;98940.78;4884366;29;20463;-75
2024/02/09 08:01:52;;;;;;;4.03;2.60;;;;;;;0.32;100.00;98933.97;4901798;29;20112;-77
2024/02/09 08:04:19;;;;;;;4.35;2.40;;;;;;;0.30;100.00;98936.06;4899602;29;20048;-77
2024/02/09 08:06:46;;;;;;;3.15;2.28;;;;;;;0.31;100.00;98917.38;4920758;29;20396;-77
2024/02/09 08:09:12;;;;;;;3.05;2.10;;;;;;;0.33;100.00;98925.03;4891830;29;20145;-76
2024/02/09 08:11:39;;;;;;;5.20;2.28;;;;;;;0.28;100.00;98922.34;4907621;29;20036;-78
2024/02/09 08:14:06;;;;;;;4.35;2.95;;;;;;;0.29;100.00;98927.38;4903301;29;20371;-77
2024/02/09 08:16:32;;;;;;;3.63;2.17;;;;;;;0.32;100.00;98923.44;4908794;29;20036;-76
2024/02/09 08:18:59;;;;;;;3.03;2.40;;;;;;;0.33;100.00;98915.28;4907482;29;20044;-76
2024/02/09 08:21:25;;;;;;;3.75;2.03;;;;;;;0.31;100.00;98922.63;4905249;29;20066;-77
2024/02/09 08:23:51;;;;;;;3.28;2.00;;;;;;;0.34;100.00;98910.81;4912763;29;20067;-76
2024/02/09 08:26:17;;;;;;;3.55;2.00;;;;;;;0.32;100.00;98908.44;4908352;29;20036;-76
2024/02/09 08:28:45;;;;;;;3.33;1.98;;;;;;;0.33;100.00;98912.66;4900843;29;20064;-78
2024/02/09 08:31:15;;;;;;;3.03;1.98;;;;;;;0.31;100.00;98911.31;4905135;29;20036;-77
2024/02/09 08:33:49;;;;;;;2.85;1.95;;;;;;;0.35;100.00;98913.22;4910083;29;20115;-76
2024/02/09 08:36:22;;;;;;;2.92;2.00;;;;;;;0.35;100.00;98897.41;4890121;29;20038;-76
2024/02/09 08:38:49;;;;;;;3.35;1.92;;;;;;;0.38;100.00;98886.38;4904795;29;20040;-76
2024/02/09 08:41:15;;;;;;;4.18;2.40;;;;;;;0.38;100.00;98890.84;4903805;29;20414;-78
2024/02/09 08:43:42;;;;;;;2.95;1.95;;;;;;;0.37;100.00;98894.53;4890178;29;20039;-76
2024/02/09 08:46:08;;;;;;;3.55;2.15;;;;;;;0.38;100.00;98886.38;4904331;29;20107;-76
2024/02/09 08:48:34;;;;;;;3.40;1.92;;;;;;;0.39;100.00;98898.50;4903642;29;20050;-77
2024/02/09 08:50:59;;;;;;;3.72;2.70;;;;;;;0.39;100.00;98887.97;4918802;29;20037;-75
2024/02/09 08:53:25;;;;;;;3.30;2.30;;;;;;;0.37;100.00;98884.00;4905734;29;20044;-77
2024/02/09 08:55:57;;;;;;;4.10;2.13;;;;;;;0.38;100.00;98896.13;4923966;29;20036;-77
2024/02/09 08:58:23;;;;;;;3.83;2.20;;;;;;;0.39;100.00;98884.53;4905397;29;20123;-77
2024/02/09 09:00:48;;;;;;;4.35;2.22;;;;;;;0.38;100.00;98880.31;4904229;29;20171;-75
2024/02/09 09:03:14;;;;;;;3.70;2.40;;;;;;;0.39;100.00;98887.97;4903332;29;20106;-75
2024/02/09 09:05:41;;;;;;;4.03;2.50;;;;;;;0.40;100.00;98886.91;4905529;29;20080;-77
2024/02/09 09:08:09;;;;;;;3.97;2.58;;;;;;;0.39;100.00;98881.91;4905180;29;20127;-77
2024/02/09 09:10:35;;;;;;;3.55;2.22;;;;;;;0.41;100.00;98880.63;4891762;29;20044;-76
2024/02/09 09:13:00;;;;;;;3.90;2.60;;;;;;;0.41;100.00;98880.63;4890305;29;20040;-76
2024/02/09 09:15:26;;;;;;;3.10;2.20;;;;;;;0.40;100.00;98873.75;4905576;29;20035;-77
2024/02/09 09:17:51;;;;;;;3.40;2.03;;;;;;;0.43;100.00;98883.00;4904785;29;20038;-75
2024/02/09 09:20:17;;;;;;;3.63;2.10;;;;;;;0.42;100.00;98876.16;4901920;29;20134;-78
2024/02/09 09:22:43;;;;;;;3.65;2.00;;;;;;;0.45;100.00;98876.44;4907290;29;20047;-77
2024/02/09 09:25:08;;;;;;;4.38;2.40;;;;;;;0.47;100.00;98873.53;4901591;29;20058;-76
2024/02/09 09:27:34;;;;;;;2.92;2.13;;;;;;;0.50;100.00;98879.13;4887264;29;20048;-76
2024/02/09 09:30:04;;;;;;;4.15;2.38;;;;;;;0.54;100.00;98872.31;4887604;29;20082;-77
2024/02/09 09:32:32;;;;;;;3.67;2.13;;;;;;;0.53;100.00;98867.28;4916156;29;20841;-76
2024/02/09 09:35:02;;;;;;;2.33;1.75;;;;;;;0.49;100.00;98859.09;4906763;29;20040;-76
2024/02/09 09:37:28;;;;;;;3.03;2.00;;;;;;;0.52;100.00;98865.69;4899780;29;20064;-77
2024/02/09 09:39:54;;;;;;;4.20;1.83;;;;;;;0.53;100.00;98854.13;4892174;29;20122;-76
2024/02/09 09:42:23;;;;;;;3.13;1.90;;;;;;;0.56;100.00;98851.00;4898626;29;20043;-78
2024/02/09 09:44:52;;;;;;;2.55;1.77;;;;;;;0.60;100.00;98853.91;4908308;29;20253;-76
2024/02/09 09:47:20;;;;;;;3.72;1.70;;;;;;;0.60;100.00;98849.44;4904985;29;20046;-76
2024/02/09 09:49:47;;;;;;;2.25;1.65;;;;;;;0.58;100.00;98848.91;4907676;29;20134;-77
2024/02/09 09:52:28;;;;;;;2.35;1.70;;;;;;;0.57;100.00;98847.31;4901543;29;20040;-77
2024/02/09 09:54:58;;;;;;;2.67;1.73;;;;;;;0.59;100.00;98850.47;4910373;29;20532;-77
2024/02/09 09:57:24;;;;;;;2.58;1.80;;;;;;;0.59;100.00;98839.16;4898357;29;20043;-76
2024/02/09 09:59:52;;;;;;;2.53;1.70;;;;;;;0.60;100.00;98836.25;4906580;29;20122;-77
2024/02/09 10:02:18;;;;;;;3.50;1.95;;;;;;;0.62;100.00;98843.94;4908240;29;20489;-76
2024/02/09 10:04:48;;;;;;;2.17;1.50;;;;;;;0.66;100.00;98850.28;4912671;29;20655;-77
2024/02/09 10:07:21;;;;;;;3.15;1.83;;;;;;;0.66;100.00;98848.44;4907617;29;20047;-76
2024/02/09 10:09:50;;;;;;;2.95;1.67;;;;;;;0.68;100.00;98845.56;4904207;29;20546;-76
2024/02/09 10:12:15;;;;;;;4.28;1.80;;;;;;;0.72;100.00;98847.44;4907026;29;20060;-75
2024/02/09 10:14:42;;;;;;;2.92;1.50;;;;;;;0.73;100.00;98843.75;4911476;29;20086;-76
2024/02/09 10:17:11;;;;;;;2.78;1.85;;;;;;;0.78;100.00;98843.81;4907397;29;20036;-75
2024/02/09 10:19:37;;;;;;;2.22;1.58;;;;;;;0.81;100.00;98848.59;4910674;29;20047;-76
2024/02/09 10:22:04;;;;;;;3.90;2.38;;;;;;;0.81;100.00;98845.94;4909219;29;20036;-77
2024/02/09 10:24:30;;;;;;;2.85;1.80;;;;;;;0.76;100.00;98845.91;4907528;29;20032;-76
2024/02/09 10:26:56;;;;;;;2.72;1.63;;;;;;;0.77;100.00;98841.44;4912618;29;20028;-77
2024/02/09 10:29:28;;;;;;;2.75;1.70;;;;;;;0.75;100.00;98846.94;4908618;29;20070;-77
2024/02/09 10:31:54;;;;;;;2.92;1.60;;;;;;;0.77;100.00;98847.47;4911375;29;20497;-76
2024/02/09 10:34:21;;;;;;;;;;;;;;;0.72;100.00;98842.16;4923187;29;20405;-76
2024/02/09 10:36:47;;;;;;;1.85;1.30;;;;;;;0.75;100.00;98831.13;4898834;29;19918;-78
2024/02/09 10:39:13;;;;;;;3.67;2.00;;;;;;;0.76;100.00;98824.81;4909452;29;20040;-77
2024/02/09 10:41:39;;;;;;;2.80;1.65;;;;;;;0.77;100.00;98833.53;4909801;29;20050;-77
2024/02/09 10:44:05;;;;;;;3.03;2.00;;;;;;;0.78;100.00;98833.25;4908297;29;20826;-76
2024/02/09 10:46:34;;;;;;;2.30;1.38;;;;;;;0.76;100.00;98830.09;4903693;29;20052;-77
2024/02/09 10:49:02;;;;;;;2.85;1.67;;;;;;;0.73;100.00;98832.41;4902153;29;20383;-77
2024/02/09 10:51:35;;;;;;;2.63;1.67;;;;;;;0.78;100.00;98822.72;4907789;29;20032;-76
2024/02/09 10:54:08;;;;;;;2.15;1.52;;;;;;;0.74;100.00;98816.34;4897922;29;20039;-77
2024/02/09 10:56:36;;;;;;;2.38;1.50;;;;;;;0.78;100.00;98828.00;4907961;29;20039;-76
2024/02/09 10:59:05;;;;;;;3.65;1.73;;;;;;;0.76;100.00;98818.75;4905797;29;20099;-76
2024/02/09 11:01:33;;;;;;;4.40;1.92;;;;;;;0.77;100.00;98820.34;4922269;29;20088;-76
2024/02/09 11:04:00;;;;;;;3.65;1.98;;;;;;;0.78;100.00;98821.94;4884742;29;20047;-76
2024/02/09 11:06:26;;;;;;;3.50;1.45;;;;;;;0.75;100.00;98817.97;4902317;29;20414;-76
2024/02/09 11:08:53;;;;;;;4.18;2.22;;;;;;;0.80;100.00;98820.63;4909212;29;20044;-76
2024/02/09 11:11:20;;;;;;;4.20;1.85;;;;;;;0.82;100.00;98815.13;4905857;29;20033;-76
2024/02/09 11:13:46;;;;;;;2.40;1.45;;;;;;;0.79;100.00;98813.75;4887729;29;20119;-77
2024/02/09 11:16:12;;;;;;;2.45;1.80;;;;;;;0.82;100.00;98808.00;4904153;29;20042;-77
2024/02/09 11:18:38;;;;;;;3.28;1.40;;;;;;;0.83;100.00;98808.81;4894162;29;20032;-77
2024/02/09 11:21:05;;;;;;;2.58;1.70;;;;;;;0.86;100.00;98800.38;4911601;29;20031;-76
2024/02/09 11:23:40;;;;;;;2.33;1.63;;;;;;;0.88;100.00;98794.84;4883955;29;20044;-76
2024/02/09 11:26:10;;;;;;;4.22;1.70;;;;;;;0.87;100.00;98788.78;4907290;29;20032;-76
2024/02/09 11:28:36;;;;;;;3.05;1.50;;;;;;;0.86;100.00;98783.78;4870034;29;20060;-75
2024/02/09 11:31:07;;;;;;;2.65;1.75;;;;;;;0.90;100.00;98783.03;4903829;29;20075;-75
2024/02/09 11:33:34;;;;;;;2.35;1.23;;;;;;;0.87;100.00;98778.25;4898106;29;20499;-76
2024/02/09 11:36:01;;;;;;;3.42;1.27;;;;;;;0.89;100.00;98775.38;4888911;29;20815;-76
2024/02/09 11:38:27;;;;;;;2.08;1.40;;;;;;;0.89;100.00;98784.06;4902149;29;20044;-77
2024/02/09 11:40:54;;;;;;;2.67;1.58;;;;;;;0.90;100.00;98790.13;4902915;29;20111;-76
2024/02/09 11:43:19;;;;;;;2.47;1.50;;;;;;;0.90;100.00;98772.47;4898926;29;20131;-75
2024/02/09 11:45:45;;;;;;;2.13;1.50;;;;;;;0.94;100.00;98762.22;4910763;29;20592;-77
2024/02/09 11:48:14;;;;;;;4.18;1.90;;;;;;;0.96;100.00;98768.03;4899974;29;20033;-74
2024/02/09 11:50:40;;;;;;;2.85;1.70;;;;;;;0.98;100.00;98758.81;4887784;29;20439;-74
2024/02/09 11:53:07;;;;;;;3.50;2.05;;;;;;;1.01;100.00;98752.22;4904241;29;20506;-74
2024/02/09 11:55:37;;;;;;;2.47;1.52;;;;;;;1.03;100.00;98764.13;4905654;29;20039;-76
2024/02/09 11:58:03;;;;;;;3.72;1.73;;;;;;;1.01;100.00;98768.84;4903344;29;20036;-76
2024/02/09 12:00:29;;;;;;;1.80;1.30;;;;;;;0.97;100.00;98754.59;4905308;29;20130;-74
2024/02/09 12:02:55;;;;;;;2.58;1.25;;;;;;;1.00;100.00;98751.44;4905770;29;20501;-74
2024/02/09 12:05:21;;;;;;;2.03;1.20;;;;;;;1.05;100.00;98753.31;4901858;29;20745;-76
2024/02/09 12:07:47;;;;;;;2.60;1.33;;;;;;;1.06;100.00;98747.78;4902492;29;20417;-77
2024/02/09 12:10:13;;;;;;;2.33;1.63;;;;;;;1.09;100.00;98751.78;4905884;29;20035;-75
2024/02/09 12:12:38;;;;;;;2.60;1.60;;;;;;;1.09;100.00;98749.13;4897217;29;20420;-76
2024/02/09 12:15:05;;;;;;;2.90;1.67;;;;;;;1.13;100.00;98744.91;4907199;29;20047;-76
2024/02/09 12:17:31;;;;;;;2.17;1.15;;;;;;;1.14;100.00;98743.88;4908429;29;20051;-75
2024/02/09 12:20:00;;;;;;;;;;;;;;;1.15;100.00;98742.00;4921807;29;20039;-75
2024/02/09 12:22:29;;;;;;;1.95;1.10;;;;;;;1.15;100.00;98740.16;4905724;29;20006;-73
2024/02/09 12:24:55;;;;;;;1.92;1.10;;;;;;;1.16;100.00;98733.88;4906037;29;20453;-76
2024/02/09 12:27:21;;;;;;;3.47;1.50;;;;;;;1.20;100.00;98728.88;4908813;29;20409;-74
2024/02/09 12:29:47;;;;;;;3.28;1.73;;;;;;;1.16;100.00;98739.16;4907481;29;20039;-75
2024/02/09 12:32:13;;;;;;;2.63;1.90;;;;;;;1.16;100.00;98736.50;4875134;29;20449;-74
2024/02/09 12:34:43;;;;;;;3.08;1.30;;;;;;;1.18;100.00;98731.75;4907933;29;20036;-75
2024/02/09 12:37:10;;;;;;;2.85;1.52;;;;;;;1.20;100.00;98728.88;4906844;29;20040;-75
2024/02/09 12:39:36;;;;;;;2.22;1.30;;;;;;;1.21;100.00;98718.06;4897089;29;20040;-74
2024/02/09 12:42:02;;;;;;;2.78;1.45;;;;;;;1.21;100.00;98715.41;4909170;29;20078;-76
2024/02/09 12:44:30;;;;;;;2.88;1.33;;;;;;;1.23;100.00;98715.19;4907472;29;20047;-75
2024/02/09 12:47:02;;;;;;;2.30;1.42;;;;;;;1.26;100.00;98715.44;4905366;29;20032;-74
2024/02/09 12:49:28;;;;;;;2.08;1.20;;;;;;;1.30;100.00;98723.66;4902636;29;20039;-75
2024/02/09 12:51:54;;;;;;;1.85;1.00;;;;;;;1.29;100.00;98725.50;4891143;29;20036;-75
2024/02/09 12:54:20;;;;;;;1.77;1.30;;;;;;;1.29;100.00;98725.50;4899042;29;20029;-74
2024/02/09 12:56:46;;;;;;;2.38;1.40;;;;;;;1.30;100.00;98724.44;4904532;29;20099;-74
2024/02/09 12:59:12;;;;;;;2.42;1.55;;;;;;;1.31;100.00;98719.94;4890097;29;20457;-74
2024/02/09 13:01:37;;;;;;;1.90;1.40;;;;;;;1.30;100.00;98729.72;4922309;29;20070;-75
2024/02/09 13:04:03;;;;;;;2.13;1.00;;;;;;;1.27;100.00;98724.94;4906498;29;20103;-75
2024/02/09 13:06:31;;;;;;;1.90;1.00;;;;;;;1.33;100.00;98731.03;4889609;29;20363;-76
2024/02/09 13:08:56;;;;;;;2.17;1.30;;;;;;;1.36;100.00;98722.63;4906057;29;20040;-74
2024/02/09 13:11:24;;;;;;;1.75;1.40;;;;;;;1.38;100.00;98715.22;4906493;29;20041;-74
2024/02/09 13:13:50;;;;;;;2.33;1.30;;;;;;;1.40;100.00;98696.50;4912338;29;20044;-74
2024/02/09 13:16:15;;;;;;;2.90;1.52;;;;;;;1.39;100.00;98705.47;4906238;29;20832;-75
2024/02/09 13:18:41;;;;;;;2.55;1.55;;;;;;;1.41;100.00;98698.09;4892287;29;20391;-75
2024/02/09 13:21:07;;;;;;;2.10;1.42;;;;;;;1.45;100.00;98701.81;4900092;29;20533;-74